Latest Coastal Weather Observations for Shark Bay Airport

IDW60701

Issued at 1:15 pm WST Thursday 23 October 2014 (issued every 10 minutes, with the page automatically refreshed every 10 minutes)

About coastal observations | Map of coastal stations | Coastal observations for WA | Marine services | Other Formats
Station Details ID: 006105 Name: SHARK BAY AIRPORT Lat: -25.89 Lon: 113.58 Height: 33.8 m
Data from the previous 72 hours. | See also: Recent months for locations in Western Australia
Date/Time
WST
Temp

°C
Wind Pressure Rain
since 9am
mm
Weather Cloud Vis
km
Sea
Height
m
Swell
Dir
 
Speed
knots
Gust
knots
hPa Trend Height
m
Period
s
Dir
23/01:00pm 27.1 W 12 17 1016.4 - 0.0 - - - - - - -
23/12:30pm 25.7 W 12 19 1016.6 - 0.0 - - - - - - -
23/12:00pm 25.9 W 11 17 1017.0 - 0.0 - - - - - - -
23/11:30am 25.3 WSW 11 15 1017.4 - 0.0 - - - - - - -
23/11:00am 25.5 WSW 10 15 1017.7 - 0.0 - - - - - - -
23/10:30am 24.3 WSW 10 14 1018.0 - 0.0 - - - - - - -
23/10:00am 24.8 WSW 8 18 1018.1 - 0.0 - - - - - - -
23/09:30am 23.7 W 10 15 1018.1 - 0.0 - - - - - - -
23/09:00am 23.8 SW 8 14 1017.9 - 0.0 - - - - - - -
23/08:30am 23.2 SW 4 10 1017.5 - 0.0 - - - - - - -
23/08:00am 22.0 SSW 4 6 1017.0 - 0.0 - - - - - - -
23/07:30am 21.8 W 5 7 1016.8 - 0.0 - - - - - - -
23/07:00am 20.5 SE 3 4 1016.8 - 0.0 - - - - - - -
23/06:30am 18.5 S 2 4 1016.6 - 0.0 - - - - - - -
23/06:00am 15.8 WSW 4 6 1016.6 - 0.0 - - - - - - -
23/05:30am 16.5 SW 4 6 1016.4 - 0.0 - - - - - - -
23/05:00am 18.4 SW 7 9 1016.2 - 0.0 - - - - - - -
23/04:30am 18.9 SSW 6 9 1016.2 - 0.0 - - - - - - -
23/04:00am 17.0 SW 4 6 1016.3 - 0.0 - - - - - - -
23/03:30am 16.8 WSW 6 7 1016.3 - 0.0 - - - - - - -
23/03:00am 18.3 WSW 8 11 1016.4 - 0.0 - - - - - - -
23/02:30am 19.5 SW 11 15 1016.5 - 0.0 - - - - - - -
23/02:00am 18.2 SW 5 7 1016.7 - 0.0 - - - - - - -
23/01:30am 17.1 WSW 4 5 1016.9 - 0.0 - - - - - - -
23/01:00am 18.6 WSW 7 10 1017.2 - 0.0 - - - - - - -
23/12:30am 18.2 WSW 5 7 1017.3 - 0.0 - - - - - - -
23/12:00am 18.4 WSW 6 7 1017.6 - 0.0 - - - - - - -
 
Date/Time
WST
Temp

°C
Wind Pressure Rain
since 9am
mm
Weather Cloud Vis
km
Sea
Height
m
Swell
Dir
 
Speed
knots
Gust
knots
hPa Trend Height
m
Period
s
Dir
22/11:30pm 19.2 WSW 7 9 1017.7 - 0.0 - - - - - - -
22/11:00pm 19.2 WSW 8 9 1017.9 - 0.0 - - - - - - -
22/10:30pm 19.5 WSW 7 9 1018.0 - 0.0 - - - - - - -
22/10:00pm 19.6 WSW 7 9 1018.1 - 0.0 - - - - - - -
22/09:30pm 20.0 WSW 7 10 1018.0 - 0.0 - - - - - - -
22/09:00pm 20.2 WSW 8 11 1018.0 - 0.0 - - - - - - -
22/08:30pm 20.9 WSW 10 13 1017.9 - 0.0 - - - - - - -
22/08:00pm 21.0 W 10 14 1017.8 - 0.0 - - - - - - -
22/07:30pm 21.0 W 10 14 1017.7 - 0.0 - - - - - - -
22/07:00pm 21.3 WSW 9 13 1017.4 - 0.0 - - - - - - -
22/06:30pm 21.9 WSW 11 16 1017.1 - 0.0 - - - - - - -
22/06:00pm 23.1 W 12 15 1016.7 - 0.0 - - - - - - -
22/05:30pm 23.9 W 14 18 1016.5 - 0.0 - - - - - - -
22/05:00pm 24.8 W 15 19 1016.4 - 0.0 - - - - - - -
22/04:30pm 25.1 W 14 18 1016.3 - 0.0 - - - - - - -
22/04:00pm 25.5 W 14 18 1016.3 - 0.0 - - - - - - -
22/03:30pm 26.0 W 13 17 1016.3 - 0.0 - - - - - - -
22/03:00pm 25.9 W 13 17 1016.3 - 0.0 - - - - - - -
22/02:30pm 26.2 W 12 18 1016.4 - 0.0 - - - - - - -
22/02:00pm 26.4 W 12 16 1016.7 - 0.0 - - - - - - -
22/01:30pm 26.4 WSW 10 16 1016.8 - 0.0 - - - - - - -
22/01:00pm 26.4 WSW 8 12 1017.0 - 0.0 - - - - - - -
22/12:30pm 26.1 WSW 10 14 1017.3 - 0.0 - - - - - - -
22/12:00pm 26.0 W 12 16 1017.5 - 0.0 - - - - - - -
22/11:30am 26.1 W 11 18 1017.7 - 0.0 - - - - - - -
22/11:00am 25.1 W 12 16 1017.7 - 0.0 - - - - - - -
22/10:30am 24.5 SW 10 17 1017.9 - 0.0 - - - - - - -
22/10:00am 24.0 SW 11 15 1018.1 - 0.0 - - - - - - -
22/09:30am 23.6 W 11 17 1018.3 - 0.0 - - - - - - -
22/09:00am 23.4 WSW 9 13 1018.1 - 0.0 - - - - - - -
22/08:30am 22.8 WSW 11 15 1018.0 - 0.0 - - - - - - -
22/08:00am 22.3 WSW 10 15 1017.7 - 0.0 - - - - - - -
22/07:30am 22.0 WSW 10 14 1017.5 - 0.0 - - - - - - -
22/07:00am 20.9 WSW 10 14 1017.3 - 0.0 - - - - - - -
22/06:30am 19.5 WSW 7 9 1017.3 - 0.0 - - - - - - -
22/06:00am 18.6 WSW 7 11 1016.9 - 0.0 - - - - - - -
22/05:30am 18.4 WSW 8 10 1016.6 - 0.0 - - - - - - -
22/05:00am 18.8 WSW 8 11 1016.4 - 0.0 - - - - - - -
22/04:30am 19.6 WSW 10 15 1016.0 - 0.0 - - - - - - -
22/04:00am 19.4 WSW 9 13 1016.0 - 0.0 - - - - - - -
22/03:30am 19.0 WSW 7 10 1015.8 - 0.0 - - - - - - -
22/03:00am 19.0 SW 9 11 1015.7 - 0.0 - - - - - - -
22/02:30am 18.4 WSW 7 9 1016.0 - 0.0 - - - - - - -
22/02:00am 16.5 WSW 6 6 1016.0 - 0.0 - - - - - - -
22/01:30am 16.4 WSW 5 6 1016.0 - 0.0 - - - - - - -
22/01:00am 16.9 S 5 7 1015.9 - 0.0 - - - - - - -
22/12:30am 17.2 SSW 5 6 1016.2 - 0.0 - - - - - - -
22/12:00am 17.8 SSW 6 7 1016.1 - 0.0 - - - - - - -
 
Date/Time
WST
Temp

°C
Wind Pressure Rain
since 9am
mm
Weather Cloud Vis
km
Sea
Height
m
Swell
Dir
 
Speed
knots
Gust
knots
hPa Trend Height
m
Period
s
Dir
21/11:30pm 18.6 S 8 10 1016.1 - 0.0 - - - - - - -
21/11:00pm 18.8 SSW 8 10 1016.7 - 0.0 - - - - - - -
21/10:30pm 19.2 SSW 9 11 1017.2 - 0.0 - - - - - - -
21/10:00pm 19.3 SSW 7 10 1017.4 - 0.0 - - - - - - -
21/09:30pm 19.6 SSW 10 14 1017.1 - 0.0 - - - - - - -
21/09:00pm 19.8 SSW 10 13 1017.0 - 0.0 - - - - - - -
21/08:30pm 19.9 SSW 9 13 1016.9 - 0.0 - - - - - - -
21/08:00pm 20.4 SSW 11 15 1016.7 - 0.0 - - - - - - -
21/07:30pm 20.8 SW 13 17 1016.6 - 0.0 - - - - - - -
21/07:00pm 21.3 SW 14 21 1016.0 - 0.0 - - - - - - -
21/06:30pm 22.1 SW 15 20 1015.7 - 0.0 - - - - - - -
21/06:00pm 23.4 SW 13 17 1015.3 - 0.0 - - - - - - -
21/05:30pm 24.5 SW 14 18 1015.2 - 0.0 - - - - - - -
21/05:00pm 25.2 SW 13 17 1014.9 - 0.0 - - - - - - -
21/04:30pm 26.3 SW 13 16 1014.8 - 0.0 - - - - - - -
21/04:00pm 26.7 WSW 15 18 1015.2 - 0.0 - - - - - - -
21/03:30pm 27.9 WSW 14 18 1015.2 - 0.0 - - - - - - -
21/03:00pm 28.6 W 15 21 1015.4 - 0.0 - - - - - - -
21/02:30pm 28.6 W 13 16 1015.6 - 0.0 - - - - - - -
21/02:00pm 28.7 W 12 16 1016.1 - 0.0 - - - - - - -
21/01:30pm 28.2 SW 9 13 1016.4 - 0.0 - - - - - - -
21/01:00pm 27.8 WSW 9 13 1016.8 - 0.0 - - - - - - -
21/12:30pm 26.6 SW 12 15 1017.3 - 0.0 - - - - - - -
21/12:00pm 26.1 SW 11 14 1017.4 - 0.0 - - - - - - -
21/11:30am 26.4 SW 10 16 1017.6 - 0.0 - - - - - - -
21/11:00am 26.4 SW 10 14 1017.9 - 0.0 - - - - - - -
21/10:30am 26.4 SSW 7 12 1018.3 - 0.0 - - - - - - -
21/10:00am 25.3 ESE 6 9 1018.5 - 0.0 - - - - - - -
21/09:30am 24.7 ESE 7 10 1018.5 - 0.0 - - - - - - -
21/09:00am 23.6 SE 7 11 1018.9 - 0.0 - - - - - - -
21/08:30am 21.9 SSE 7 11 1019.1 - 0.0 - - - - - - -
21/08:00am 20.7 SSE 9 12 1019.2 - 0.0 - - - - - - -
21/07:30am 19.5 SSE 10 13 1019.0 - 0.0 - - - - - - -
21/07:00am 18.3 SSE 11 14 1018.6 - 0.0 - - - - - - -
21/06:30am 16.4 SSE 7 10 1018.3 - 0.0 - - - - - - -
21/06:00am 15.3 SE 7 10 1017.8 - 0.0 - - - - - - -
21/05:30am 15.4 SSE 8 10 1017.6 - 0.0 - - - - - - -
21/05:00am 15.7 S 8 11 1017.6 - 0.0 - - - - - - -
21/04:30am 15.7 SSE 9 11 1017.4 - 0.0 - - - - - - -
21/04:00am 14.8 S 7 9 1017.5 - 0.0 - - - - - - -
21/03:30am 14.5 S 7 8 1017.5 - 0.0 - - - - - - -
21/03:00am 14.8 S 7 7 1017.6 - 0.0 - - - - - - -
21/02:30am 15.2 S 7 8 1017.5 - 0.0 - - - - - - -
21/02:00am 16.0 S 7 9 1017.7 - 0.0 - - - - - - -
21/01:30am 16.5 S 7 9 1017.8 - 0.0 - - - - - - -
21/01:00am 17.0 S 8 11 1017.9 - 0.0 - - - - - - -
21/12:30am 17.3 SSE 8 11 1018.0 - 0.0 - - - - - - -
21/12:00am 17.5 SSE 7 10 1018.2 - 0.0 - - - - - - -
 
Date/Time
WST
Temp

°C
Wind Pressure Rain
since 9am
mm
Weather Cloud Vis
km
Sea
Height
m
Swell
Dir
 
Speed
knots
Gust
knots
hPa Trend Height
m
Period
s
Dir
20/11:30pm 17.7 S 7 9 1018.5 - 0.0 - - - - - - -
20/11:00pm 17.9 S 7 9 1018.7 - 0.0 - - - - - - -
20/10:30pm 18.6 S 9 12 1018.8 - 0.0 - - - - - - -
20/10:00pm 18.8 S 9 12 1018.9 - 0.0 - - - - - - -
20/09:30pm 19.1 S 9 13 1018.7 - 0.0 - - - - - - -
20/09:00pm 19.2 S 9 13 1018.7 - 0.0 - - - - - - -
20/08:30pm 19.4 S 9 13 1018.5 - 0.0 - - - - - - -
20/08:00pm 19.8 S 11 14 1018.4 - 0.0 - - - - - - -
20/07:30pm 20.3 SSW 10 14 1018.1 - 0.0 - - - - - - -
20/07:00pm 20.8 SSW 12 15 1017.8 - 0.0 - - - - - - -
20/06:30pm 21.4 SSW 13 17 1017.4 - 0.0 - - - - - - -
20/06:00pm 22.5 SSW 13 18 1017.2 - 0.0 - - - - - - -
20/05:30pm 23.3 SW 14 20 1017.1 - 0.0 - - - - - - -
20/05:00pm 24.1 SW 15 20 1016.9 - 0.0 - - - - - - -
20/04:30pm 24.3 SW 14 19 1016.6 - 0.0 - - - - - - -
20/04:00pm 24.9 SW 13 19 1016.4 - 0.0 - - - - - - -
20/03:30pm 24.9 SW 14 18 1016.5 - 0.0 - - - - - - -
20/03:00pm 25.3 SW 12 17 1016.6 - 0.0 - - - - - - -
20/02:30pm 25.5 SSW 12 18 1016.6 - 0.0 - - - - - - -
20/02:00pm 25.9 SW 13 19 1016.8 - 0.0 - - - - - - -
20/01:30pm 26.0 SW 12 17 1017.2 - 0.0 - - - - - - -

Other Formats:

Comma delimited format used in spreadsheet applications
http://www.bom.gov.au/fwo/IDW60701/IDW60701.95402.axf

JavaScript Object Notation format (JSON) in row-major order
http://www.bom.gov.au/fwo/IDW60701/IDW60701.95402.json